createdAt,value
2022-08-14T00:00:47.553Z,53.19
2022-08-14T00:03:33.010Z,53.47
2022-08-14T00:06:25.825Z,53.61
2022-08-14T00:09:14.452Z,53.06
2022-08-14T00:12:05.520Z,52.87
2022-08-14T00:15:23.584Z,54.11
2022-08-14T00:18:10.828Z,54.41
2022-08-14T00:21:00.809Z,54.91
2022-08-14T00:23:53.968Z,55.13
2022-08-14T00:26:39.153Z,54.99
2022-08-14T00:29:27.152Z,54.89
2022-08-14T00:32:52.057Z,55.25
2022-08-14T00:35:18.751Z,56.76
2022-08-14T00:38:04.662Z,58.04
2022-08-14T00:40:53.562Z,58.06
2022-08-14T00:43:43.086Z,57.90
2022-08-14T00:46:32.611Z,58.09
2022-08-14T00:49:21.194Z,58.09
2022-08-14T00:52:07.043Z,57.48
2022-08-14T00:54:58.045Z,57.95
2022-08-14T00:57:43.539Z,57.65
2022-08-14T01:00:37.391Z,57.60
2022-08-14T01:03:30.740Z,57.69
2022-08-14T01:06:18.493Z,58.43
2022-08-14T01:09:04.736Z,59.12
2022-08-14T01:11:57.144Z,59.05
2022-08-14T01:14:55.125Z,58.95
2022-08-14T01:18:02.137Z,59.07
2022-08-14T01:21:06.288Z,58.90
2022-08-14T01:23:53.950Z,60.45
2022-08-14T01:26:39.277Z,62.33
2022-08-14T01:29:48.658Z,63.34
2022-08-14T01:32:37.599Z,64.40
2022-08-14T01:36:03.487Z,65.40
2022-08-14T01:38:37.250Z,65.76
2022-08-14T01:41:30.057Z,65.64
2022-08-14T01:44:32.319Z,66.18
2022-08-14T01:47:22.194Z,64.49
2022-08-14T01:50:08.971Z,63.05
2022-08-14T01:52:59.693Z,62.63
2022-08-14T01:55:45.101Z,62.40
2022-08-14T01:58:30.737Z,62.29
2022-08-14T02:01:18.115Z,62.59
2022-08-14T02:04:05.722Z,63.10
2022-08-14T02:07:15.565Z,63.34
2022-08-14T02:10:00.972Z,63.54
2022-08-14T02:12:53.982Z,63.70
2022-08-14T02:15:43.600Z,64.06
2022-08-14T02:18:31.999Z,64.14
2022-08-14T02:21:19.519Z,64.96
2022-08-14T02:24:38.328Z,65.34
2022-08-14T02:28:24.969Z,65.92
2022-08-14T02:30:19.222Z,66.17
2022-08-14T02:33:05.588Z,66.16
2022-08-14T02:35:53.499Z,66.04
2022-08-14T02:38:43.291Z,66.13
2022-08-14T02:41:30.343Z,67.81
2022-08-14T02:44:29.773Z,68.96
2022-08-14T02:47:19.310Z,69.94
2022-08-14T02:50:06.198Z,70.93
2022-08-14T02:53:13.231Z,71.12
2022-08-14T02:56:03.264Z,70.85
2022-08-14T02:59:02.129Z,70.09
2022-08-14T03:01:54.759Z,69.41
2022-08-14T03:04:40.222Z,68.51
2022-08-14T03:07:25.903Z,68.74
2022-08-14T03:10:26.968Z,68.77
2022-08-14T03:13:21.525Z,68.80
2022-08-14T03:16:19.755Z,68.76
2022-08-14T03:19:07.252Z,69.19
2022-08-14T03:21:53.712Z,69.27
2022-08-14T03:24:39.341Z,69.49
2022-08-14T03:27:35.433Z,70.06
2022-08-14T03:30:39.936Z,70.71
2022-08-14T03:33:27.752Z,71.79
2022-08-14T03:37:51.074Z,72.19
2022-08-14T03:39:24.184Z,72.32
2022-08-14T03:42:19.263Z,72.53
2022-08-14T03:45:26.418Z,72.75
2022-08-14T03:48:27.487Z,72.58
2022-08-14T03:51:16.832Z,72.39
2022-08-14T03:54:08.042Z,72.52
2022-08-14T03:57:02.407Z,72.91
2022-08-14T03:59:48.387Z,72.69
2022-08-14T04:02:37.679Z,72.56
2022-08-14T04:05:42.862Z,73.21
2022-08-14T04:08:31.803Z,73.59
2022-08-14T04:11:17.505Z,74.07
2022-08-14T04:14:05.403Z,74.04
2022-08-14T04:16:52.470Z,73.70
2022-08-14T04:19:38.929Z,74.22
2022-08-14T04:22:25.160Z,74.44
2022-08-14T04:25:10.581Z,74.71
2022-08-14T04:28:02.091Z,74.78
2022-08-14T04:30:48.813Z,74.92
2022-08-14T04:33:35.503Z,75.29
2022-08-14T04:36:21.752Z,75.27
2022-08-14T04:39:27.658Z,75.15
2022-08-14T04:42:32.347Z,74.87
2022-08-14T04:45:17.538Z,74.77
2022-08-14T04:48:39.504Z,74.62
2022-08-14T04:51:27.517Z,74.34
2022-08-14T04:54:12.229Z,74.51
2022-08-14T04:56:58.573Z,74.42
2022-08-14T04:59:43.844Z,74.42
2022-08-14T05:02:28.961Z,74.55
2022-08-14T05:05:14.622Z,74.42
2022-08-14T05:08:12.181Z,74.78
2022-08-14T05:11:19.425Z,74.26
2022-08-14T05:14:33.075Z,74.13
2022-08-14T05:17:11.872Z,74.07
2022-08-14T05:21:04.782Z,74.24
2022-08-14T05:23:03.473Z,74.65
2022-08-14T05:25:52.107Z,74.63
2022-08-14T05:28:37.754Z,75.31
2022-08-14T05:31:23.074Z,75.46
2022-08-14T05:34:16.216Z,75.43
2022-08-14T05:37:03.193Z,75.71
2022-08-14T05:39:48.491Z,75.68
2022-08-14T05:42:34.489Z,75.54
2022-08-14T05:45:20.055Z,75.22
2022-08-14T05:48:06.295Z,75.07
2022-08-14T05:50:55.580Z,74.77
2022-08-14T05:53:42.454Z,74.39
2022-08-14T05:56:29.010Z,74.47
2022-08-14T05:59:14.312Z,74.94
2022-08-14T06:02:02.301Z,75.68
2022-08-14T06:04:50.888Z,76.12
2022-08-14T06:07:36.738Z,76.18
2022-08-14T06:10:22.013Z,76.22
2022-08-14T06:13:07.786Z,75.57
2022-08-14T06:15:54.338Z,75.15
2022-08-14T06:18:39.732Z,74.71
2022-08-14T06:21:24.647Z,73.62
2022-08-14T06:24:18.585Z,73.05
2022-08-14T06:27:06.095Z,72.63
2022-08-14T06:29:51.347Z,72.44
2022-08-14T06:32:39.424Z,72.05
2022-08-14T06:35:27.628Z,71.66
2022-08-14T06:38:19.604Z,71.63
2022-08-14T06:41:06.897Z,71.76
2022-08-14T06:43:56.295Z,70.99
2022-08-14T06:46:41.833Z,72.13
2022-08-14T06:49:45.081Z,72.92
2022-08-14T06:52:39.955Z,72.96
2022-08-14T06:55:36.910Z,72.11
2022-08-14T06:58:28.570Z,73.41
2022-08-14T07:01:33.229Z,74.05
2022-08-14T07:04:36.913Z,74.99
2022-08-14T07:07:22.548Z,74.75
2022-08-14T07:10:16.698Z,75.65
2022-08-14T07:13:04.627Z,75.64
2022-08-14T07:15:55.144Z,75.92
2022-08-14T07:18:41.617Z,76.60
2022-08-14T07:21:27.941Z,76.94
2022-08-14T07:24:26.495Z,76.83
2022-08-14T07:27:16.721Z,76.96
2022-08-14T07:30:04.261Z,76.14
2022-08-14T07:32:49.711Z,75.29
2022-08-14T07:35:42.848Z,74.17
2022-08-14T07:38:43.381Z,73.89
2022-08-14T07:41:37.792Z,72.98
2022-08-14T07:44:32.915Z,72.08
2022-08-14T07:47:21.243Z,71.26
2022-08-14T07:50:16.466Z,70.33
2022-08-14T07:53:03.825Z,69.27
2022-08-14T07:56:00.339Z,68.09
2022-08-14T07:58:54.610Z,67.58
2022-08-14T08:01:48.035Z,66.66
2022-08-14T08:04:39.698Z,66.13
2022-08-14T08:07:31.116Z,64.95
2022-08-14T08:10:57.267Z,64.30
2022-08-14T08:13:41.649Z,63.45
2022-08-14T08:16:36.563Z,62.20
2022-08-14T08:19:21.813Z,62.16
2022-08-14T08:22:07.236Z,61.16
2022-08-14T08:24:53.258Z,59.97
2022-08-14T08:27:44.527Z,59.07
2022-08-14T08:30:32.837Z,57.27
2022-08-14T08:33:20.445Z,55.22
2022-08-14T08:36:12.575Z,54.17
2022-08-14T08:39:16.796Z,54.09
2022-08-14T08:42:06.152Z,53.13
2022-08-14T08:44:55.895Z,52.55
2022-08-14T08:47:40.932Z,52.22
2022-08-14T08:53:17.411Z,51.51
2022-08-14T08:56:03.784Z,50.99
2022-08-14T08:58:50.887Z,50.81
2022-08-14T09:01:36.524Z,50.21
2022-08-14T09:04:21.944Z,50.44
2022-08-14T09:07:10.733Z,49.92
2022-08-14T09:09:59.548Z,48.71
2022-08-14T09:12:47.110Z,47.97
2022-08-14T09:15:42.509Z,47.61
2022-08-14T09:18:28.953Z,48.25
2022-08-14T09:21:16.440Z,47.90
2022-08-14T09:24:29.537Z,48.40
2022-08-14T09:27:07.237Z,48.91
2022-08-14T09:29:54.127Z,48.78
2022-08-14T09:33:08.941Z,48.88
2022-08-14T09:35:59.750Z,46.40
2022-08-14T09:38:54.490Z,45.56
2022-08-14T09:42:20.822Z,44.88
2022-08-14T09:45:15.745Z,44.29
2022-08-14T09:48:01.918Z,44.16
2022-08-14T09:50:55.504Z,42.15
2022-08-14T09:54:17.726Z,41.57
2022-08-14T09:56:57.298Z,41.69
2022-08-14T09:59:50.414Z,40.42
2022-08-14T10:02:35.688Z,39.87
2022-08-14T10:05:30.406Z,39.65
2022-08-14T10:08:26.200Z,39.94
2022-08-14T10:11:17.677Z,40.02
2022-08-14T10:14:29.518Z,39.61
2022-08-14T10:17:27.508Z,38.51
2022-08-14T10:20:40.548Z,38.73
2022-08-14T10:23:43.306Z,37.62
2022-08-14T10:26:28.680Z,36.84
2022-08-14T10:29:18.934Z,36.92
2022-08-14T10:32:18.116Z,36.07
2022-08-14T10:35:15.833Z,35.30
2022-08-14T10:38:01.556Z,35.54
2022-08-14T10:40:52.059Z,35.79
2022-08-14T10:43:45.816Z,35.49
2022-08-14T10:47:40.875Z,34.99
2022-08-14T10:50:04.350Z,35.11
2022-08-14T10:53:00.025Z,35.10
2022-08-14T10:55:48.136Z,35.12
2022-08-14T10:58:36.302Z,35.19
2022-08-14T11:01:30.530Z,32.61
2022-08-14T11:04:28.409Z,32.17
2022-08-14T11:07:21.086Z,32.91
2022-08-14T11:10:13.599Z,32.40
2022-08-14T11:12:59.271Z,31.99
2022-08-14T11:15:46.591Z,32.08
2022-08-14T11:18:35.966Z,30.72
2022-08-14T11:21:30.111Z,29.86
2022-08-14T11:24:54.383Z,28.68
2022-08-14T11:27:33.244Z,28.93
2022-08-14T11:30:51.263Z,28.79
2022-08-14T11:33:32.655Z,28.77
2022-08-14T11:36:18.874Z,27.98
2022-08-14T11:39:04.159Z,27.32
2022-08-14T11:41:57.996Z,27.20
2022-08-14T11:44:45.814Z,25.80
2022-08-14T11:47:43.901Z,26.30
2022-08-14T11:50:36.008Z,25.70
2022-08-14T11:53:30.261Z,25.03
2022-08-14T11:56:16.420Z,25.27
2022-08-14T11:59:02.784Z,24.82
2022-08-14T12:01:48.914Z,24.33
2022-08-14T12:04:35.378Z,24.62
2022-08-14T12:07:21.824Z,24.74
2022-08-14T12:10:26.992Z,24.25
2022-08-14T12:13:17.531Z,24.27
2022-08-14T12:16:11.166Z,24.60
2022-08-14T12:19:06.073Z,24.66
2022-08-14T12:21:54.342Z,25.32
2022-08-14T12:24:43.929Z,25.53
2022-08-14T12:27:54.027Z,24.83
2022-08-14T12:30:44.610Z,25.06
2022-08-14T12:33:33.179Z,24.72
2022-08-14T12:36:21.022Z,24.21
2022-08-14T12:39:26.785Z,23.74
2022-08-14T12:42:27.147Z,23.81
2022-08-14T12:45:17.632Z,23.83
2022-08-14T12:48:21.123Z,24.45
2022-08-14T12:51:25.220Z,23.60
2022-08-14T12:54:27.549Z,23.89
2022-08-14T12:57:19.350Z,23.16
2022-08-14T13:00:23.173Z,23.33
2022-08-14T13:03:09.570Z,23.02
2022-08-14T13:05:56.425Z,23.03
2022-08-14T13:08:53.290Z,23.61
2022-08-14T13:11:45.204Z,22.83
2022-08-14T13:14:33.630Z,22.90
2022-08-14T13:17:19.583Z,22.79
2022-08-14T13:20:10.126Z,22.49
2022-08-14T13:22:56.137Z,23.30
2022-08-14T13:25:55.534Z,22.02
2022-08-14T13:29:01.480Z,22.63
2022-08-14T13:31:51.762Z,23.04
2022-08-14T13:34:41.081Z,22.63
2022-08-14T13:37:26.595Z,23.09
2022-08-14T13:40:12.570Z,21.93
2022-08-14T13:42:58.234Z,22.00
2022-08-14T13:46:00.447Z,22.77
2022-08-14T13:48:47.362Z,22.71
2022-08-14T13:51:37.011Z,22.04
2022-08-14T13:54:24.804Z,22.47
2022-08-14T13:57:13.413Z,22.47
2022-08-14T14:00:01.950Z,22.91
2022-08-14T14:02:48.475Z,22.88
2022-08-14T14:05:52.772Z,23.62
2022-08-14T14:08:47.894Z,23.72
2022-08-14T14:11:33.699Z,23.90
2022-08-14T14:14:29.746Z,24.16
2022-08-14T14:17:28.971Z,23.95
2022-08-14T14:20:35.208Z,24.12
2022-08-14T14:23:22.472Z,24.04
2022-08-14T14:26:14.111Z,23.11
2022-08-14T14:29:00.493Z,23.26
2022-08-14T14:31:49.214Z,23.29
2022-08-14T14:34:37.671Z,22.93
2022-08-14T14:37:24.848Z,23.70
2022-08-14T14:40:53.700Z,23.74
2022-08-14T14:43:20.668Z,24.16
2022-08-14T14:46:09.385Z,24.26
2022-08-14T14:48:55.020Z,25.35
2022-08-14T14:51:44.421Z,25.06
2022-08-14T14:54:37.804Z,25.32
2022-08-14T14:57:35.278Z,25.42
2022-08-14T15:00:21.128Z,25.43
2022-08-14T15:03:06.995Z,25.53
2022-08-14T15:05:54.846Z,26.03
2022-08-14T15:08:56.649Z,26.16
2022-08-14T15:11:46.908Z,26.62
2022-08-14T15:14:54.558Z,27.18
2022-08-14T15:17:41.746Z,26.94
2022-08-14T15:20:30.731Z,27.07
2022-08-14T15:23:16.387Z,27.23
2022-08-14T15:26:02.008Z,27.28
2022-08-14T15:28:48.343Z,27.44
2022-08-14T15:31:47.605Z,27.47
2022-08-14T15:34:43.729Z,27.38
2022-08-14T15:37:32.755Z,27.17
2022-08-14T15:40:22.473Z,27.45
2022-08-14T15:43:13.052Z,27.29
2022-08-14T15:45:58.020Z,27.52
2022-08-14T15:48:44.118Z,27.53
2022-08-14T15:51:31.429Z,27.26
2022-08-14T15:54:16.644Z,26.80
2022-08-14T15:57:08.328Z,26.95
2022-08-14T16:00:37.794Z,26.45
2022-08-14T16:03:18.084Z,26.29
2022-08-14T16:06:17.448Z,26.20
2022-08-14T16:09:07.793Z,25.73
2022-08-14T16:11:56.877Z,26.14
2022-08-14T16:14:45.415Z,26.21
2022-08-14T16:17:36.588Z,26.65
2022-08-14T16:20:42.348Z,27.44
2022-08-14T16:23:35.996Z,27.55
2022-08-14T16:26:30.005Z,27.57
2022-08-14T16:29:18.497Z,27.56
2022-08-14T16:32:33.417Z,27.92
2022-08-14T16:35:12.334Z,27.77
2022-08-14T16:37:58.298Z,27.89
2022-08-14T16:40:44.635Z,27.82
2022-08-14T16:43:29.472Z,28.06
2022-08-14T16:46:22.098Z,28.26
2022-08-14T16:49:12.366Z,28.64
2022-08-14T16:51:59.004Z,28.55
2022-08-14T16:54:46.938Z,28.46
2022-08-14T16:57:34.042Z,28.92
2022-08-14T17:00:43.085Z,28.94
2022-08-14T17:03:30.200Z,28.47
2022-08-14T17:06:36.664Z,28.05
2022-08-14T17:09:43.431Z,28.37
2022-08-14T17:12:44.855Z,28.24
2022-08-14T17:15:30.082Z,28.41
2022-08-14T17:18:15.212Z,28.94
2022-08-14T17:21:31.190Z,29.16
2022-08-14T17:24:56.788Z,29.49
2022-08-14T17:27:23.719Z,29.09
2022-08-14T17:30:32.436Z,29.17
2022-08-14T17:33:32.621Z,29.04
2022-08-14T17:36:24.471Z,29.05
2022-08-14T17:39:15.637Z,29.01
2022-08-14T17:42:03.803Z,29.17
2022-08-14T17:45:01.787Z,29.52
2022-08-14T17:47:47.356Z,29.17
2022-08-14T17:51:01.148Z,29.00
2022-08-14T17:53:53.849Z,29.76
2022-08-14T17:56:47.162Z,30.34
2022-08-14T17:59:37.417Z,30.50
2022-08-14T18:02:30.894Z,30.40
2022-08-14T18:05:17.747Z,30.80
2022-08-14T18:08:33.008Z,30.87
2022-08-14T18:11:18.505Z,30.78
2022-08-14T18:14:04.784Z,30.92
2022-08-14T18:16:55.123Z,31.07
2022-08-14T18:19:41.473Z,31.74
2022-08-14T18:22:32.898Z,31.64
2022-08-14T18:25:23.439Z,32.34
2022-08-14T18:28:16.058Z,32.57
2022-08-14T18:31:21.573Z,33.54
2022-08-14T18:34:30.746Z,34.04
2022-08-14T18:37:21.113Z,34.27
2022-08-14T18:40:18.560Z,34.50
2022-08-14T18:43:04.014Z,34.84
2022-08-14T18:46:00.974Z,35.23
2022-08-14T18:48:51.564Z,35.67
2022-08-14T18:51:45.108Z,35.80
2022-08-14T18:54:37.321Z,36.36
2022-08-14T18:57:22.481Z,37.10
2022-08-14T19:00:32.996Z,37.84
2022-08-14T19:03:18.644Z,37.98
2022-08-14T19:06:09.500Z,38.02
2022-08-14T19:08:55.332Z,38.64
2022-08-14T19:11:42.044Z,39.40
2022-08-14T19:14:48.605Z,40.12
2022-08-14T19:18:13.985Z,40.24
2022-08-14T19:20:52.586Z,40.67
2022-08-14T19:23:43.266Z,40.63
2022-08-14T19:26:52.157Z,41.06
2022-08-14T19:29:40.109Z,41.46
2022-08-14T19:32:32.456Z,41.42
2022-08-14T19:35:55.468Z,41.76
2022-08-14T19:38:59.697Z,42.21
2022-08-14T19:41:56.864Z,42.71
2022-08-14T19:44:44.318Z,42.56
2022-08-14T19:47:41.372Z,41.54
2022-08-14T19:50:40.744Z,40.99
2022-08-14T19:53:27.044Z,40.72
2022-08-14T19:56:12.228Z,40.13
2022-08-14T19:59:19.120Z,40.07
2022-08-14T20:02:05.956Z,39.83
2022-08-14T20:04:58.130Z,39.34
2022-08-14T20:07:59.308Z,39.96
2022-08-14T20:11:07.736Z,40.05
2022-08-14T20:14:01.075Z,39.84
2022-08-14T20:16:49.338Z,39.73
2022-08-14T20:19:37.740Z,39.75
2022-08-14T20:22:38.347Z,39.53
2022-08-14T20:25:23.614Z,39.56
2022-08-14T20:28:29.577Z,39.71
2022-08-14T20:31:18.648Z,39.20
2022-08-14T20:34:18.850Z,38.89
2022-08-14T20:37:16.415Z,39.43
2022-08-14T20:40:23.504Z,39.21
2022-08-14T20:43:55.351Z,39.31
2022-08-14T20:46:42.280Z,40.06
2022-08-14T20:49:30.244Z,40.24
2022-08-14T20:52:19.047Z,40.64
2022-08-14T20:55:25.534Z,40.77
2022-08-14T20:58:44.854Z,40.67
2022-08-14T21:01:33.794Z,41.13
2022-08-14T21:04:32.669Z,42.11
2022-08-14T21:07:24.775Z,41.98
2022-08-14T21:10:33.758Z,42.29
2022-08-14T21:14:08.889Z,42.61
2022-08-14T21:16:35.044Z,43.35
2022-08-14T21:19:27.451Z,43.75
2022-08-14T21:22:12.859Z,43.89
2022-08-14T21:25:02.384Z,43.68
2022-08-14T21:27:56.792Z,43.93
2022-08-14T21:30:51.889Z,44.20
2022-08-14T21:33:39.910Z,44.54
2022-08-14T21:36:31.024Z,44.95
2022-08-14T21:39:19.693Z,45.72
2022-08-14T21:42:06.180Z,45.94
2022-08-14T21:44:52.642Z,46.18
2022-08-14T21:47:38.485Z,46.28
2022-08-14T21:50:56.667Z,46.64
2022-08-14T21:53:34.166Z,47.21
2022-08-14T21:56:19.506Z,47.58
2022-08-14T21:59:11.690Z,48.10
2022-08-14T22:02:05.096Z,47.93
2022-08-14T22:04:52.234Z,48.41
2022-08-14T22:07:42.329Z,48.88
2022-08-14T22:10:29.028Z,49.11
2022-08-14T22:13:17.521Z,49.35
2022-08-14T22:16:02.839Z,49.55
2022-08-14T22:18:48.093Z,49.52
2022-08-14T22:21:38.348Z,49.62
2022-08-14T22:24:38.553Z,49.48
2022-08-14T22:27:55.741Z,50.04
2022-08-14T22:30:42.922Z,50.08
2022-08-14T22:33:30.916Z,50.35
2022-08-14T22:36:42.361Z,50.32
2022-08-14T22:40:17.523Z,50.12
2022-08-14T22:42:40.932Z,50.46
2022-08-14T22:45:55.465Z,50.84
2022-08-14T22:48:41.697Z,50.58
2022-08-14T22:51:27.713Z,51.22
2022-08-14T22:54:52.075Z,52.57
2022-08-14T22:57:19.097Z,53.02
2022-08-14T23:00:16.372Z,53.42
2022-08-14T23:03:04.087Z,53.69
2022-08-14T23:05:51.634Z,53.64
2022-08-14T23:08:58.656Z,53.60
2022-08-14T23:11:46.862Z,53.57
2022-08-14T23:14:32.121Z,53.73
2022-08-14T23:17:17.579Z,54.56
2022-08-14T23:20:04.867Z,54.94
2022-08-14T23:22:53.241Z,55.88
2022-08-14T23:25:58.328Z,56.69
2022-08-14T23:28:56.888Z,57.54
2022-08-14T23:31:44.182Z,57.87
2022-08-14T23:34:30.006Z,58.28
2022-08-14T23:37:15.531Z,57.82
2022-08-14T23:40:01.824Z,57.93
2022-08-14T23:43:04.705Z,57.33
2022-08-14T23:45:54.956Z,57.34
2022-08-14T23:48:44.476Z,57.64
2022-08-14T23:51:36.459Z,58.25
2022-08-14T23:54:48.563Z,58.47
2022-08-14T23:57:30.736Z,58.18
